Time;durP1;ratioP1;P1;durP2;ratioP2;P2;SDS_P1;SDS_P2;PMS_P1;PMS_P2;Temp;Humidity;BMP_temperature;BMP_pressure;BME280_temperature;BME280_humidity;BME280_pressure;Samples;Min_cycle;Max_cycle;Signal;HPM_P1;HPM_P2
2021/11/04 00:02:01;;;;;;;11.00;6.65;;;;;;;10.13;100.00;99395.59;6296697;28;20048;-75
2021/11/04 00:05:02;;;;;;;12.13;6.25;;;;;;;10.17;100.00;99394.47;6296560;28;20044;-75
2021/11/04 00:08:04;;;;;;;9.15;5.95;;;;;;;10.16;100.00;99403.22;6295532;28;20036;-71
2021/11/04 00:11:05;;;;;;;12.05;6.45;;;;;;;10.00;100.00;99388.63;6295881;28;20044;-71
2021/11/04 00:14:06;;;;;;;14.73;6.20;;;;;;;9.88;100.00;99390.34;6294515;28;20037;-71
2021/11/04 00:17:07;;;;;;;15.15;6.38;;;;;;;9.94;100.00;99383.84;6277888;28;20040;-71
2021/11/04 00:20:10;;;;;;;13.60;6.47;;;;;;;9.89;100.00;99385.97;6278013;28;20578;-71
2021/11/04 00:23:11;;;;;;;11.73;6.20;;;;;;;9.97;100.00;99398.47;6295625;28;20415;-72
2021/11/04 00:26:12;;;;;;;12.13;6.22;;;;;;;9.93;100.00;99392.63;6294376;28;20032;-71
2021/11/04 00:29:13;;;;;;;13.98;6.65;;;;;;;10.01;100.00;99399.91;6277796;28;20047;-71
2021/11/04 00:32:14;;;;;;;15.98;6.53;;;;;;;9.98;100.00;99397.50;6295495;28;20189;-71
2021/11/04 00:35:15;;;;;;;12.80;6.53;;;;;;;10.14;100.00;99395.50;6294164;28;20503;-71
2021/11/04 00:38:16;;;;;;;11.33;6.27;;;;;;;10.16;100.00;99384.97;6295501;28;20403;-71
2021/11/04 00:41:17;;;;;;;11.65;6.47;;;;;;;10.22;100.00;99382.78;6294293;28;20286;-70
2021/11/04 00:44:18;;;;;;;11.55;6.30;;;;;;;10.21;100.00;99375.91;6294118;28;20074;-71
2021/11/04 00:47:19;;;;;;;10.18;6.10;;;;;;;10.20;100.00;99371.63;6277594;28;20048;-70
2021/11/04 00:50:23;;;;;;;14.18;5.95;;;;;;;10.31;100.00;99373.50;6277329;28;20119;-74
2021/11/04 00:53:24;;;;;;;12.20;6.45;;;;;;;10.34;100.00;99364.66;6328524;28;20056;-75
2021/11/04 00:56:25;;;;;;;11.55;6.28;;;;;;;10.24;100.00;99354.00;6294227;28;20102;-70
2021/11/04 00:59:26;;;;;;;11.18;6.25;;;;;;;10.30;100.00;99356.19;6260765;28;20047;-70
2021/11/04 01:02:27;;;;;;;14.15;5.97;;;;;;;10.36;100.00;99349.72;6294403;28;20438;-70
2021/11/04 01:05:28;;;;;;;9.63;6.28;;;;;;;10.21;100.00;99341.16;6295578;28;20407;-70
2021/11/04 01:08:28;;;;;;;12.75;6.57;;;;;;;10.27;100.00;99332.91;6293993;28;20040;-71
2021/11/04 01:11:29;;;;;;;14.38;6.50;;;;;;;10.27;100.00;99328.53;6293703;28;20048;-71
2021/11/04 01:14:30;;;;;;;9.48;6.10;;;;;;;10.29;100.00;99328.41;6293864;28;20028;-71
2021/11/04 01:17:32;;;;;;;9.35;5.50;;;;;;;10.24;100.00;99320.09;6294900;28;20050;-71
2021/11/04 01:20:33;;;;;;;9.48;5.80;;;;;;;10.22;100.00;99314.16;6282002;28;20048;-72
2021/11/04 01:23:34;;;;;;;11.70;5.97;;;;;;;10.23;100.00;99308.84;6299808;28;20053;-74
2021/11/04 01:26:35;;;;;;;9.88;5.38;;;;;;;10.23;100.00;99302.78;6298984;28;20044;-75
2021/11/04 01:29:35;;;;;;;8.80;5.05;;;;;;;10.31;100.00;99297.06;6282133;28;20094;-71
2021/11/04 01:32:37;;;;;;;10.65;5.93;;;;;;;10.33;100.00;99301.22;6298112;28;20049;-71
2021/11/04 01:35:38;;;;;;;7.85;5.28;;;;;;;10.35;100.00;99307.16;6281728;28;20090;-74
2021/11/04 01:38:39;;;;;;;13.02;5.55;;;;;;;10.46;100.00;99291.56;6298818;28;20036;-74
2021/11/04 01:41:40;;;;;;;7.97;5.03;;;;;;;10.48;100.00;99292.28;6282277;28;20045;-74
2021/11/04 01:44:41;;;;;;;7.80;4.88;;;;;;;10.51;100.00;99282.56;6299686;28;20625;-74
2021/11/04 01:47:46;;;;;;;8.77;4.85;;;;;;;10.53;100.00;99288.50;6298538;28;20475;-75
2021/11/04 01:50:47;;;;;;;9.13;4.53;;;;;;;10.53;100.00;99285.91;6299610;28;20041;-75
2021/11/04 01:53:48;;;;;;;8.85;4.60;;;;;;;10.56;100.00;99280.44;6298150;28;20090;-75
2021/11/04 01:56:49;;;;;;;11.48;4.95;;;;;;;10.63;100.00;99286.91;6298325;28;20475;-75
2021/11/04 01:59:50;;;;;;;10.13;5.45;;;;;;;10.62;100.00;99283.44;6299355;28;20170;-75
2021/11/04 02:02:55;;;;;;;8.23;4.80;;;;;;;10.68;100.00;99275.16;6281438;28;20053;-71
2021/11/04 02:05:58;;;;;;;7.47;4.60;;;;;;;10.71;100.00;99278.50;6298532;28;20072;-70
2021/11/04 02:09:07;;;;;;;9.65;4.85;;;;;;;10.75;100.00;99279.91;6298689;28;20046;-71
2021/11/04 02:12:28;;;;;;;9.20;4.40;;;;;;;10.79;100.00;99279.59;6297456;28;20171;-74
2021/11/04 02:15:36;;;;;;;7.50;4.53;;;;;;;10.85;100.00;99275.69;6297365;28;20055;-70
2021/11/04 02:18:37;;;;;;;9.07;4.03;;;;;;;10.86;100.00;99277.38;6298308;28;20040;-71
2021/11/04 02:21:44;;;;;;;9.20;4.75;;;;;;;10.86;100.00;99266.94;6297228;28;20041;-71
2021/11/04 02:25:09;;;;;;;7.93;4.13;;;;;;;10.83;100.00;99269.75;6298598;28;20089;-71
2021/11/04 02:28:12;;;;;;;11.15;4.70;;;;;;;10.91;100.00;99256.13;6316469;28;20043;-71
2021/11/04 02:31:13;;;;;;;9.05;4.60;;;;;;;10.93;100.00;99264.69;6297287;28;20495;-70
2021/11/04 02:34:15;;;;;;;6.65;4.03;;;;;;;10.96;100.00;99267.91;6296744;28;20051;-71
2021/11/04 02:37:17;;;;;;;9.47;4.83;;;;;;;10.98;100.00;99247.75;6297890;28;20107;-71
2021/11/04 02:40:20;;;;;;;6.93;4.18;;;;;;;11.02;100.00;99241.34;6296654;28;20483;-70
2021/11/04 02:43:22;;;;;;;8.45;4.05;;;;;;;11.02;100.00;99228.28;6297728;28;20381;-70
2021/11/04 02:46:23;;;;;;;6.03;3.95;;;;;;;11.05;100.00;99222.00;6313691;28;20067;-71
2021/11/04 02:49:25;;;;;;;7.72;3.88;;;;;;;11.04;100.00;99220.34;6296137;28;20110;-70
2021/11/04 02:52:27;;;;;;;11.88;4.55;;;;;;;11.02;100.00;99214.41;6296240;28;20040;-70
2021/11/04 02:55:33;;;;;;;7.82;4.07;;;;;;;11.06;100.00;99214.06;6296038;28;20043;-70
2021/11/04 02:58:34;;;;;;;5.70;3.25;;;;;;;11.02;100.00;99219.63;6296235;28;20484;-70
2021/11/04 03:01:34;;;;;;;10.15;4.00;;;;;;;10.97;100.00;99217.34;6297292;28;20047;-71
2021/11/04 03:04:35;;;;;;;9.18;4.18;;;;;;;11.01;100.00;99231.81;6312695;28;20048;-71
2021/11/04 03:07:36;;;;;;;5.55;3.58;;;;;;;11.07;100.00;99230.53;6297274;28;20101;-74
2021/11/04 03:10:37;;;;;;;8.65;4.00;;;;;;;11.06;100.00;99232.31;6279311;28;20044;-72
2021/11/04 03:13:38;;;;;;;9.32;4.05;;;;;;;11.06;100.00;99234.09;6295775;28;20047;-71
2021/11/04 03:16:45;;;;;;;6.45;3.83;;;;;;;11.06;100.00;99227.09;6262407;28;20040;-71
2021/11/04 03:19:47;;;;;;;9.80;4.03;;;;;;;11.08;100.00;99240.06;6295697;28;20044;-71
2021/11/04 03:22:48;;;;;;;7.03;4.50;;;;;;;11.08;100.00;99243.47;6295632;28;20405;-71
2021/11/04 03:25:51;;;;;;;5.53;3.65;;;;;;;11.03;100.00;99242.16;6295581;28;20036;-71
2021/11/04 03:28:51;;;;;;;;;;;;;;;11.07;100.00;99239.19;6295744;28;20098;-71
2021/11/04 03:31:54;;;;;;;7.03;3.45;;;;;;;11.01;100.00;99252.72;6296575;28;19920;-71
2021/11/04 03:34:56;;;;;;;6.05;3.65;;;;;;;10.98;100.00;99254.75;6296541;28;20045;-71
2021/11/04 03:38:00;;;;;;;10.43;3.78;;;;;;;11.05;100.00;99261.16;6262113;28;20394;-70
2021/11/04 03:41:01;;;;;;;10.73;4.15;;;;;;;11.03;100.00;99261.25;6296305;28;20424;-70
2021/11/04 03:44:02;;;;;;;8.77;3.93;;;;;;;11.00;100.00;99258.91;6295180;28;20048;-75
2021/11/04 03:47:04;;;;;;;6.63;3.88;;;;;;;11.02;100.00;99253.56;6296555;28;20072;-75
2021/11/04 03:50:06;;;;;;;7.43;4.60;;;;;;;11.02;100.00;99243.13;6294979;28;20053;-75
2021/11/04 03:53:07;;;;;;;6.47;3.78;;;;;;;11.09;100.00;99241.69;6295426;28;20049;-75
2021/11/04 03:56:08;;;;;;;6.38;3.80;;;;;;;11.04;100.00;99246.44;6278653;28;20044;-75
2021/11/04 03:59:09;;;;;;;8.18;3.92;;;;;;;11.00;100.00;99238.00;6295366;28;20047;-74
2021/11/04 04:02:11;;;;;;;7.22;4.28;;;;;;;11.04;100.00;99233.41;6278410;28;20040;-75
2021/11/04 04:05:12;;;;;;;8.05;3.92;;;;;;;11.13;100.00;99224.03;6296504;28;20044;-74
2021/11/04 04:08:13;;;;;;;7.95;3.92;;;;;;;11.15;100.00;99228.16;6296234;28;20475;-74
2021/11/04 04:11:14;;;;;;;6.85;3.90;;;;;;;11.16;100.00;99211.56;6278407;28;20048;-75
2021/11/04 04:14:15;;;;;;;7.77;3.90;;;;;;;11.13;100.00;99224.84;6294927;28;20097;-74
2021/11/04 04:17:21;;;;;;;6.47;4.13;;;;;;;11.11;100.00;99221.53;6295918;28;20441;-75
2021/11/04 04:20:21;;;;;;;9.98;4.30;;;;;;;11.12;100.00;99212.75;6318073;28;20054;-70
2021/11/04 04:23:22;;;;;;;6.93;3.88;;;;;;;11.24;100.00;99203.13;6317790;28;20503;-70
2021/11/04 04:26:23;;;;;;;7.22;3.90;;;;;;;11.23;100.00;99202.31;6301048;28;20518;-71
2021/11/04 04:29:24;;;;;;;9.02;4.10;;;;;;;11.20;100.00;99206.94;6300865;28;20048;-70
2021/11/04 04:32:24;;;;;;;7.13;3.92;;;;;;;11.23;100.00;99191.84;6284279;28;20503;-70
2021/11/04 04:35:25;;;;;;;6.38;3.55;;;;;;;11.16;100.00;99185.47;6300865;28;20056;-70
2021/11/04 04:38:26;;;;;;;8.32;3.90;;;;;;;11.16;100.00;99184.59;6317523;28;20048;-70
2021/11/04 04:41:27;;;;;;;7.35;4.20;;;;;;;11.06;100.00;99172.28;6300954;28;20084;-71
2021/11/04 04:44:28;;;;;;;8.88;3.83;;;;;;;11.05;100.00;99156.72;6284004;28;20070;-69
2021/11/04 04:47:28;;;;;;;6.50;3.70;;;;;;;11.09;100.00;99163.38;6317559;28;20045;-70
2021/11/04 04:50:29;;;;;;;6.57;3.85;;;;;;;11.06;100.00;99156.63;6293408;28;20056;-70
2021/11/04 04:53:30;;;;;;;5.47;3.55;;;;;;;10.99;100.00;99137.16;6296958;28;20115;-70
2021/11/04 04:56:31;;;;;;;11.68;3.97;;;;;;;10.97;100.00;99123.38;6299364;28;20054;-74
2021/11/04 04:59:31;;;;;;;8.73;3.80;;;;;;;10.98;100.00;99111.19;6282828;28;20044;-74
2021/11/04 05:02:32;;;;;;;6.47;3.88;;;;;;;10.98;100.00;99108.56;6300909;28;20045;-74
2021/11/04 05:05:33;;;;;;;6.00;3.72;;;;;;;10.92;100.00;99096.00;6300332;28;20044;-75
2021/11/04 05:08:34;;;;;;;6.40;4.00;;;;;;;10.93;100.00;99098.47;6316093;28;20060;-75
2021/11/04 05:11:35;;;;;;;5.53;3.33;;;;;;;10.89;100.00;99071.81;6300246;28;20051;-75
2021/11/04 05:14:36;;;;;;;5.97;3.33;;;;;;;10.83;100.00;99064.44;6300195;28;20041;-75
2021/11/04 05:17:37;;;;;;;7.75;4.13;;;;;;;10.80;100.00;99069.88;6298667;28;20479;-74
2021/11/04 05:20:38;;;;;;;8.38;4.03;;;;;;;10.84;100.00;99073.09;6298969;28;20489;-75
2021/11/04 05:23:39;;;;;;;5.45;3.38;;;;;;;10.85;100.00;99093.88;6298659;28;20121;-75
2021/11/04 05:26:40;;;;;;;6.80;3.67;;;;;;;10.81;100.00;99081.16;6298583;28;20051;-75
2021/11/04 05:29:41;;;;;;;7.18;3.80;;;;;;;10.88;100.00;99072.72;6281784;28;20036;-70
2021/11/04 05:32:42;;;;;;;8.05;3.95;;;;;;;10.97;100.00;99076.41;6299383;28;20043;-70
2021/11/04 05:35:43;;;;;;;9.00;4.43;;;;;;;11.08;98.83;99071.19;6281620;28;20051;-70
2021/11/04 05:38:43;;;;;;;9.02;3.95;;;;;;;11.14;97.79;99059.44;6297880;28;20045;-70
2021/11/04 05:41:44;;;;;;;7.88;3.80;;;;;;;11.16;99.56;99067.13;6298043;28;20183;-70
2021/11/04 05:44:45;;;;;;;11.45;4.18;;;;;;;11.17;99.56;99053.13;6281176;28;20550;-70
2021/11/04 05:47:46;;;;;;;6.97;3.90;;;;;;;10.93;100.00;99035.00;6297770;28;20095;-70
2021/11/04 05:50:47;;;;;;;8.60;4.60;;;;;;;10.96;100.00;99050.44;6297675;28;20083;-70
2021/11/04 05:53:47;;;;;;;7.97;4.40;;;;;;;10.94;100.00;99055.78;6298923;28;20036;-70
2021/11/04 05:56:48;;;;;;;7.28;3.90;;;;;;;10.95;100.00;99039.16;6297636;28;20040;-70
2021/11/04 05:59:49;;;;;;;6.15;3.55;;;;;;;11.02;100.00;99034.28;6299192;28;20036;-70
2021/11/04 06:02:50;;;;;;;11.02;3.70;;;;;;;11.04;99.92;99027.19;6280917;28;20048;-71
2021/11/04 06:05:50;;;;;;;9.95;4.00;;;;;;;11.06;100.00;99030.50;6297397;28;20090;-70
2021/11/04 06:08:51;;;;;;;8.80;3.78;;;;;;;11.04;100.00;99033.22;6280666;28;20041;-70
2021/11/04 06:11:52;;;;;;;12.27;4.40;;;;;;;11.11;100.00;99020.50;6298406;28;20098;-74
2021/11/04 06:14:53;;;;;;;7.13;4.13;;;;;;;11.20;100.00;99017.16;6297570;28;20047;-70
2021/11/04 06:17:54;;;;;;;6.95;3.65;;;;;;;11.24;98.85;99005.53;6288319;28;20052;-69
2021/11/04 06:20:55;;;;;;;8.85;4.28;;;;;;;11.26;98.96;98997.56;6272398;28;20044;-70
2021/11/04 06:23:56;;;;;;;7.50;4.13;;;;;;;11.32;98.75;98994.44;6255804;28;20049;-70
2021/11/04 06:26:56;;;;;;;7.20;3.90;;;;;;;11.41;95.38;98987.66;6276900;28;20040;-74
2021/11/04 06:29:57;;;;;;;8.77;4.18;;;;;;;11.26;97.62;99001.00;6282574;28;20056;-75
2021/11/04 06:32:58;;;;;;;18.08;4.63;;;;;;;11.38;98.08;99019.25;6281910;28;20321;-69
2021/11/04 06:35:59;;;;;;;11.90;4.25;;;;;;;11.38;95.15;99027.06;6265948;28;20498;-75
2021/11/04 06:39:01;;;;;;;5.47;3.60;;;;;;;11.43;97.08;99038.81;6278274;28;20032;-75
2021/11/04 06:42:02;;;;;;;7.68;4.25;;;;;;;11.44;100.00;99040.47;6280495;28;20063;-70
2021/11/04 06:45:06;;;;;;;15.85;7.43;;;;;;;11.39;100.00;99023.53;6297331;28;20044;-71
2021/11/04 06:48:13;;;;;;;10.68;4.90;;;;;;;11.40;100.00;99036.44;6296788;28;20642;-76
2021/11/04 06:51:18;;;;;;;7.75;4.63;;;;;;;11.27;100.00;99038.41;6297463;28;20077;-76
2021/11/04 06:54:23;;;;;;;22.33;12.02;;;;;;;11.25;100.00;99020.22;6298552;28;20042;-76
2021/11/04 06:57:28;;;;;;;9.60;4.70;;;;;;;11.24;100.00;99015.13;6297945;28;20036;-72
2021/11/04 07:00:31;;;;;;;7.35;4.10;;;;;;;11.26;100.00;99008.00;6296219;28;20033;-75
2021/11/04 07:03:41;;;;;;;7.63;4.18;;;;;;;11.14;100.00;99007.22;6297129;28;20091;-76
2021/11/04 07:06:47;;;;;;;10.63;4.90;;;;;;;11.09;100.00;98999.72;6297631;28;20047;-72
2021/11/04 07:09:48;;;;;;;8.52;4.07;;;;;;;11.17;100.00;99011.34;6297660;28;20044;-76
2021/11/04 07:12:50;;;;;;;6.85;4.35;;;;;;;11.22;100.00;99015.28;6296867;28;20041;-76
2021/11/04 07:15:51;;;;;;;;;;;;;;;11.23;100.00;99027.34;6296764;28;20055;-76
2021/11/04 07:18:54;;;;;;;6.93;4.07;;;;;;;11.33;100.00;99073.63;6296638;28;19924;-75
2021/11/04 07:22:07;;;;;;;7.00;3.90;;;;;;;11.26;100.00;99138.56;6297728;28;20045;-76
2021/11/04 07:25:11;;;;;;;7.78;4.05;;;;;;;11.09;100.00;99211.19;6296952;28;20521;-73
2021/11/04 07:28:16;;;;;;;7.90;4.38;;;;;;;11.11;100.00;99190.19;6297451;28;20075;-76
2021/11/04 07:31:18;;;;;;;11.93;5.20;;;;;;;11.06;100.00;99202.78;6297701;28;20403;-77
2021/11/04 07:34:22;;;;;;;7.95;4.60;;;;;;;11.00;100.00;99261.50;6295722;28;20041;-73
2021/11/04 07:37:25;;;;;;;12.55;3.88;;;;;;;11.16;100.00;99249.88;6295869;28;20094;-73
2021/11/04 07:40:28;;;;;;;10.20;4.50;;;;;;;11.20;100.00;99265.22;6275654;28;20099;-73
2021/11/04 07:43:30;;;;;;;11.98;5.07;;;;;;;11.32;100.00;99246.94;6297052;28;20495;-77
2021/11/04 07:46:32;;;;;;;12.02;5.10;;;;;;;11.33;100.00;99252.06;6296265;28;20044;-77
2021/11/04 07:49:33;;;;;;;8.57;5.22;;;;;;;11.23;100.00;99236.25;6284886;28;20048;-73
2021/11/04 07:52:34;;;;;;;11.60;4.53;;;;;;;11.18;100.00;99227.09;6281962;28;20068;-77
2021/11/04 07:55:35;;;;;;;10.48;5.30;;;;;;;11.19;100.00;99237.44;6272860;28;20052;-73
2021/11/04 07:58:36;;;;;;;12.93;6.15;;;;;;;11.14;100.00;99223.91;6289747;28;20052;-72
2021/11/04 08:01:38;;;;;;;12.02;5.35;;;;;;;11.13;100.00;99216.19;6295796;28;20056;-76
2021/11/04 08:04:39;;;;;;;13.35;5.72;;;;;;;11.07;100.00;99207.88;6294929;28;20044;-72
2021/11/04 08:07:40;;;;;;;11.10;5.82;;;;;;;11.15;100.00;99196.84;6263931;28;20060;-76
2021/11/04 08:10:41;;;;;;;14.45;6.15;;;;;;;11.09;100.00;99199.91;6270738;28;20043;-76
2021/11/04 08:13:43;;;;;;;11.45;5.78;;;;;;;11.15;100.00;99181.19;6271368;28;20045;-71
2021/11/04 08:16:43;;;;;;;11.68;5.82;;;;;;;11.01;100.00;99166.56;6284213;28;20045;-72
2021/11/04 08:19:44;;;;;;;10.68;6.30;;;;;;;11.11;100.00;99142.38;6296079;28;20415;-72
2021/11/04 08:22:45;;;;;;;14.82;6.63;;;;;;;11.25;100.00;99148.19;6274550;28;20128;-72
2021/11/04 08:25:46;;;;;;;15.82;7.00;;;;;;;11.20;100.00;99139.03;6270313;28;20049;-72
2021/11/04 08:28:47;;;;;;;17.83;7.68;;;;;;;11.28;100.00;99147.97;6285806;28;20053;-73
2021/11/04 08:31:48;;;;;;;13.35;8.35;;;;;;;11.47;100.00;99160.41;6269686;28;20045;-75
2021/11/04 08:34:48;;;;;;;19.80;10.30;;;;;;;11.47;100.00;99164.78;6273622;28;20459;-72
2021/11/04 08:37:49;;;;;;;24.50;10.52;;;;;;;11.60;100.00;99173.31;6282544;28;20086;-75
2021/11/04 08:40:50;;;;;;;19.90;9.30;;;;;;;11.67;100.00;99164.03;6274711;28;20048;-72
2021/11/04 08:43:51;;;;;;;16.23;7.70;;;;;;;11.64;100.00;99169.50;6270634;28;20048;-72
2021/11/04 08:46:52;;;;;;;12.23;7.20;;;;;;;11.75;100.00;99166.03;6281376;28;20483;-72
2021/11/04 08:49:54;;;;;;;11.77;6.37;;;;;;;11.76;100.00;99164.25;6294061;28;20048;-75
2021/11/04 08:52:55;;;;;;;12.02;5.80;;;;;;;11.88;100.00;99166.75;6278312;28;20651;-75
2021/11/04 08:55:56;;;;;;;9.63;5.40;;;;;;;12.00;100.00;99164.91;6281709;28;20041;-75
2021/11/04 08:58:57;;;;;;;13.82;5.85;;;;;;;12.08;100.00;99159.06;6269981;28;20372;-75
2021/11/04 09:01:58;;;;;;;13.13;6.25;;;;;;;11.99;100.00;99151.97;6270318;28;20044;-75
2021/11/04 09:05:02;;;;;;;11.45;6.18;;;;;;;12.13;100.00;99156.06;6269957;28;20068;-72
2021/11/04 09:08:04;;;;;;;11.00;5.18;;;;;;;12.15;100.00;99156.78;6269678;28;20091;-75
2021/11/04 09:11:05;;;;;;;11.93;6.00;;;;;;;12.22;100.00;99163.19;6269447;28;20065;-72
2021/11/04 09:14:06;;;;;;;12.95;5.95;;;;;;;12.22;100.00;99155.31;6270033;28;20044;-75
2021/11/04 09:17:07;;;;;;;11.38;6.38;;;;;;;12.21;100.00;99151.88;6252117;28;20447;-75
2021/11/04 09:20:11;;;;;;;13.25;7.32;;;;;;;12.28;100.00;99152.22;6253337;28;20506;-72
2021/11/04 09:23:13;;;;;;;14.63;7.80;;;;;;;12.49;100.00;99147.81;6269342;28;20392;-72
2021/11/04 09:26:14;;;;;;;14.02;7.22;;;;;;;12.59;100.00;99139.19;6270097;28;20052;-75
2021/11/04 09:29:14;;;;;;;12.98;7.53;;;;;;;12.59;100.00;99133.97;6269085;28;20037;-71
2021/11/04 09:32:16;;;;;;;15.40;6.82;;;;;;;13.04;100.00;99125.78;6270024;28;20037;-75
2021/11/04 09:35:17;;;;;;;11.67;6.77;;;;;;;13.10;100.00;99125.25;6253013;28;20071;-75
2021/11/04 09:38:21;;;;;;;10.10;5.50;;;;;;;12.93;100.00;99118.00;6271511;28;20302;-75
2021/11/04 09:41:22;;;;;;;11.30;5.72;;;;;;;13.37;100.00;99116.00;6257278;28;20064;-75
2021/11/04 09:44:23;;;;;;;17.48;6.10;;;;;;;13.58;100.00;99118.50;6257224;28;20487;-75
2021/11/04 09:47:29;;;;;;;8.00;4.90;;;;;;;13.85;100.00;99117.84;6274482;28;20468;-72
2021/11/04 09:50:30;;;;;;;9.05;5.22;;;;;;;14.59;100.00;99104.13;6274131;28;20450;-75
2021/11/04 09:53:32;;;;;;;11.57;5.30;;;;;;;15.16;100.00;99098.81;6274206;28;20087;-72
2021/11/04 09:56:34;;;;;;;7.57;5.50;;;;;;;15.29;100.00;99091.38;6256351;28;20480;-72
2021/11/04 09:59:35;;;;;;;12.20;5.32;;;;;;;15.05;100.00;99101.59;6273694;28;20052;-76
2021/11/04 10:02:38;;;;;;;8.68;4.70;;;;;;;14.80;100.00;99096.03;6273431;28;20049;-72
2021/11/04 10:05:51;;;;;;;8.65;4.38;;;;;;;15.19;100.00;99095.88;6276517;28;20041;-72
2021/11/04 10:08:53;;;;;;;;;;;;;;;15.00;100.00;99081.03;6287891;28;20037;-75
2021/11/04 10:11:55;;;;;;;7.53;4.93;;;;;;;14.87;100.00;99075.31;6289729;28;19924;-71
2021/11/04 10:15:11;;;;;;;8.35;4.95;;;;;;;14.85;100.00;99075.44;6265426;28;20041;-71
2021/11/04 10:18:16;;;;;;;9.25;4.70;;;;;;;14.90;100.00;99067.94;6274864;28;20048;-72
2021/11/04 10:21:25;;;;;;;10.05;5.18;;;;;;;14.86;100.00;99063.94;6320304;28;20059;-71
2021/11/04 10:24:28;;;;;;;9.20;5.20;;;;;;;15.58;100.00;99077.22;6292631;28;20510;-75
2021/11/04 10:27:31;;;;;;;8.85;4.68;;;;;;;15.60;100.00;99075.28;6297655;28;20047;-75
2021/11/04 10:30:43;;;;;;;13.10;5.68;;;;;;;15.40;100.00;99082.50;6298380;28;20144;-72
2021/11/04 10:33:46;;;;;;;10.57;6.05;;;;;;;14.77;100.00;99079.75;6297193;28;20494;-75
2021/11/04 10:36:47;;;;;;;13.60;5.50;;;;;;;15.31;100.00;99086.81;6297060;28;20082;-76
2021/11/04 10:39:49;;;;;;;9.63;5.30;;;;;;;15.56;100.00;99081.81;6280668;28;20040;-72
2021/11/04 10:42:56;;;;;;;16.48;6.25;;;;;;;15.61;100.00;99084.81;6296547;28;20101;-75
2021/11/04 10:46:07;;;;;;;13.05;5.70;;;;;;;15.58;100.00;99100.06;6280262;28;20135;-72
2021/11/04 10:49:08;;;;;;;9.63;5.82;;;;;;;15.65;100.00;99101.97;6296462;28;20388;-71
2021/11/04 10:52:10;;;;;;;15.85;5.90;;;;;;;15.73;100.00;99108.28;6278988;28;20094;-71
2021/11/04 10:55:11;;;;;;;11.27;6.40;;;;;;;15.65;100.00;99094.06;6297297;28;20036;-76
2021/11/04 10:58:27;;;;;;;9.93;5.90;;;;;;;15.87;100.00;99087.53;6298590;28;20397;-76
2021/11/04 11:01:42;;;;;;;14.60;7.53;;;;;;;15.96;100.00;99063.94;6280331;28;20670;-72
2021/11/04 11:04:43;;;;;;;25.83;10.90;;;;;;;16.14;100.00;99064.75;6297509;28;20044;-72
2021/11/04 11:07:44;;;;;;;26.05;14.13;;;;;;;16.23;100.00;99068.28;6297457;28;20399;-71
2021/11/04 11:10:45;;;;;;;15.50;8.15;;;;;;;16.20;100.00;99085.19;6296064;28;20066;-76
2021/11/04 11:13:46;;;;;;;12.18;6.25;;;;;;;16.36;100.00;99102.09;6296451;28;20448;-76
2021/11/04 11:16:52;;;;;;;14.95;7.20;;;;;;;16.43;100.00;99118.91;6280084;28;20046;-76
2021/11/04 11:19:54;;;;;;;13.68;7.47;;;;;;;16.52;100.00;99131.16;6313270;28;20423;-76
2021/11/04 11:22:55;;;;;;;12.70;7.45;;;;;;;16.61;100.00;99148.66;6296544;28;20040;-76
2021/11/04 11:26:01;;;;;;;21.35;8.65;;;;;;;16.67;100.00;99147.22;6296494;28;20044;-76
2021/11/04 11:29:02;;;;;;;11.63;7.43;;;;;;;15.91;100.00;99162.56;6297315;28;20040;-76
2021/11/04 11:32:04;;;;;;;15.73;6.93;;;;;;;16.38;100.00;99176.47;6296372;28;20479;-77
2021/11/04 11:35:19;;;;;;;13.00;6.53;;;;;;;16.28;100.00;99206.31;6296608;28;20059;-72
2021/11/04 11:38:19;;;;;;;12.02;5.95;;;;;;;15.24;100.00;99274.97;6296983;28;20124;-71
2021/11/04 11:41:39;;;;;;;13.40;6.43;;;;;;;14.77;100.00;99253.06;6295167;28;20037;-72
2021/11/04 11:44:44;;;;;;;18.20;6.28;;;;;;;14.54;100.00;99279.56;6295258;28;20079;-72
2021/11/04 11:47:48;;;;;;;13.82;6.70;;;;;;;14.34;100.00;99268.22;6295702;28;20407;-76
2021/11/04 11:50:57;;;;;;;16.48;7.60;;;;;;;14.06;100.00;99268.06;6265880;28;20517;-76
2021/11/04 11:53:58;;;;;;;13.73;7.07;;;;;;;13.66;100.00;99260.22;6286434;28;20041;-72
2021/11/04 11:57:12;;;;;;;14.27;7.20;;;;;;;13.53;100.00;99267.47;6270214;28;20091;-72
2021/11/04 12:00:13;;;;;;;17.05;7.53;;;;;;;13.58;100.00;99276.59;6237362;28;20499;-72
2021/11/04 12:03:40;;;;;;;12.85;7.32;;;;;;;13.65;100.00;99272.50;6270761;28;20055;-72
2021/11/04 12:06:42;;;;;;;14.73;7.60;;;;;;;13.77;100.00;99259.28;6270199;28;20120;-72
2021/11/04 12:09:45;;;;;;;18.08;8.88;;;;;;;13.69;100.00;99249.44;6253496;28;20064;-72
2021/11/04 12:12:47;;;;;;;17.48;9.00;;;;;;;13.44;100.00;99309.22;6253520;28;20403;-75
2021/11/04 12:16:06;;;;;;;15.25;8.80;;;;;;;13.32;100.00;99354.78;6270310;28;20044;-75
2021/11/04 12:19:08;;;;;;;14.48;8.27;;;;;;;13.09;100.00;99347.03;6271522;28;20125;-76
2021/11/04 12:22:10;;;;;;;;;;;;;;;13.00;100.00;99349.59;6270123;28;20045;-72
2021/11/04 12:25:13;;;;;;;18.02;8.60;;;;;;;12.80;100.00;99353.81;6271469;28;20318;-75
2021/11/04 12:28:16;;;;;;;14.75;8.93;;;;;;;12.67;100.00;99333.88;6271069;28;20048;-72
2021/11/04 12:31:21;;;;;;;14.05;8.63;;;;;;;12.59;100.00;99323.19;6270781;28;20037;-71
2021/11/04 12:34:24;;;;;;;18.92;9.02;;;;;;;12.65;100.00;99320.09;6270707;28;20071;-72
2021/11/04 12:37:28;;;;;;;18.48;9.05;;;;;;;12.78;100.00;99342.66;6269683;28;20041;-74
2021/11/04 12:40:29;;;;;;;15.20;8.82;;;;;;;12.79;100.00;99346.94;6270525;28;20442;-72
2021/11/04 12:43:32;;;;;;;17.92;8.80;;;;;;;12.74;100.00;99360.38;6252807;28;20077;-72
2021/11/04 12:46:33;;;;;;;14.30;8.60;;;;;;;12.83;100.00;99354.41;6269504;28;20037;-71
2021/11/04 12:49:36;;;;;;;13.23;8.38;;;;;;;12.87;100.00;99355.00;6252732;28;20056;-76
2021/11/04 12:52:37;;;;;;;12.65;7.70;;;;;;;13.10;100.00;99355.72;6269721;28;20049;-76
2021/11/04 12:55:38;;;;;;;17.83;8.35;;;;;;;13.21;100.00;99362.69;6270585;28;20045;-75
2021/11/04 12:58:40;;;;;;;16.35;8.45;;;;;;;13.26;100.00;99361.34;6270938;28;20045;-72
2021/11/04 13:01:57;;;;;;;16.40;7.55;;;;;;;13.28;100.00;99372.53;6273228;28;20052;-72
2021/11/04 13:05:13;;;;;;;14.98;7.70;;;;;;;13.52;100.00;99363.59;6274661;28;20044;-72
2021/11/04 13:08:18;;;;;;;11.77;6.97;;;;;;;13.57;100.00;99373.69;6260986;28;20057;-75
2021/11/04 13:11:19;;;;;;;16.15;7.60;;;;;;;13.59;100.00;99374.41;6251541;28;20068;-75
2021/11/04 13:14:20;;;;;;;12.38;6.85;;;;;;;13.57;100.00;99371.94;6271642;28;20090;-75
2021/11/04 13:17:37;;;;;;;11.07;7.28;;;;;;;13.79;100.00;99372.72;6274010;28;20041;-75
2021/11/04 13:20:43;;;;;;;16.60;8.05;;;;;;;13.93;100.00;99371.53;6275315;28;20040;-76
2021/11/04 13:23:45;;;;;;;13.38;9.02;;;;;;;14.02;100.00;99375.97;6275042;28;20420;-75
2021/11/04 13:26:45;;;;;;;15.93;8.43;;;;;;;13.98;100.00;99371.97;6273830;28;20041;-72
2021/11/04 13:29:51;;;;;;;15.02;8.68;;;;;;;13.88;100.00;99361.47;6274570;28;20049;-72
2021/11/04 13:32:52;;;;;;;15.90;9.77;;;;;;;13.90;100.00;99352.47;6273168;28;20122;-73
2021/11/04 13:36:00;;;;;;;13.02;8.68;;;;;;;13.86;100.00;99342.41;6275392;28;20425;-75
2021/11/04 13:39:03;;;;;;;14.88;9.65;;;;;;;13.83;100.00;99351.34;6274852;28;20041;-71
2021/11/04 13:42:04;;;;;;;13.95;8.40;;;;;;;13.86;100.00;99348.47;6274482;28;20036;-75
2021/11/04 13:45:13;;;;;;;11.38;8.30;;;;;;;13.90;100.00;99362.16;6273493;28;20549;-75
2021/11/04 13:48:14;;;;;;;18.27;9.13;;;;;;;13.87;100.00;99354.53;6274437;28;20080;-75
2021/11/04 13:51:28;;;;;;;15.63;7.57;;;;;;;13.76;100.00;99359.88;6274028;28;20063;-71
2021/11/04 13:54:34;;;;;;;26.23;11.43;;;;;;;13.83;100.00;99366.25;6273814;28;20041;-72
2021/11/04 13:57:52;;;;;;;18.77;10.27;;;;;;;13.86;100.00;99376.50;6285080;28;20044;-72
2021/11/04 14:01:04;;;;;;;18.45;11.80;;;;;;;13.88;100.00;99367.53;6272975;28;20037;-75
2021/11/04 14:04:12;;;;;;;20.98;14.63;;;;;;;13.87;100.00;99371.09;6274230;28;20041;-76
2021/11/04 14:07:26;;;;;;;19.20;10.13;;;;;;;13.86;100.00;99366.81;6273926;28;20091;-75